createdAt,value
2023-04-15T00:01:12.325Z,100.00
2023-04-15T00:03:40.349Z,100.00
2023-04-15T00:06:07.798Z,100.00
2023-04-15T00:08:35.129Z,100.00
2023-04-15T00:11:05.756Z,100.00
2023-04-15T00:13:34.205Z,100.00
2023-04-15T00:16:02.347Z,100.00
2023-04-15T00:18:30.100Z,100.00
2023-04-15T00:20:57.500Z,100.00
2023-04-15T00:23:25.067Z,100.00
2023-04-15T00:25:52.477Z,100.00
2023-04-15T00:28:20.083Z,100.00
2023-04-15T00:30:48.014Z,100.00
2023-04-15T00:33:19.283Z,100.00
2023-04-15T00:35:47.418Z,100.00
2023-04-15T00:38:14.658Z,100.00
2023-04-15T00:40:43.645Z,100.00
2023-04-15T00:43:10.878Z,100.00
2023-04-15T00:45:38.701Z,100.00
2023-04-15T00:48:06.298Z,100.00
2023-04-15T00:50:34.365Z,100.00
2023-04-15T00:53:01.778Z,100.00
2023-04-15T00:55:29.073Z,100.00
2023-04-15T00:57:58.080Z,100.00
2023-04-15T01:00:25.558Z,100.00
2023-04-15T01:02:53.196Z,100.00
2023-04-15T01:05:20.687Z,100.00
2023-04-15T01:07:48.939Z,100.00
2023-04-15T01:10:16.334Z,100.00
2023-04-15T01:12:44.714Z,100.00
2023-04-15T01:15:12.241Z,100.00
2023-04-15T01:17:39.977Z,100.00
2023-04-15T01:20:10.554Z,100.00
2023-04-15T01:22:38.601Z,100.00
2023-04-15T01:25:19.845Z,100.00
2023-04-15T01:27:47.704Z,100.00
2023-04-15T01:30:16.355Z,100.00
2023-04-15T01:32:43.527Z,100.00
2023-04-15T01:35:10.781Z,100.00
2023-04-15T01:37:38.268Z,100.00
2023-04-15T01:40:06.613Z,100.00
2023-04-15T01:42:36.569Z,100.00
2023-04-15T01:45:04.598Z,100.00
2023-04-15T01:47:32.224Z,100.00
2023-04-15T01:49:59.487Z,100.00
2023-04-15T01:52:26.740Z,100.00
2023-04-15T01:54:53.896Z,100.00
2023-04-15T01:57:21.164Z,100.00
2023-04-15T01:59:48.495Z,100.00
2023-04-15T02:02:16.299Z,100.00
2023-04-15T02:04:43.517Z,100.00
2023-04-15T02:07:10.786Z,100.00
2023-04-15T02:09:38.706Z,100.00
2023-04-15T02:12:08.692Z,100.00
2023-04-15T02:14:36.054Z,100.00
2023-04-15T02:17:07.432Z,100.00
2023-04-15T02:19:35.821Z,100.00
2023-04-15T02:22:04.297Z,100.00
2023-04-15T02:24:31.706Z,100.00
2023-04-15T02:26:58.962Z,100.00
2023-04-15T02:29:26.320Z,100.00
2023-04-15T02:31:53.600Z,100.00
2023-04-15T02:34:20.888Z,100.00
2023-04-15T02:36:49.744Z,100.00
2023-04-15T02:39:18.658Z,100.00
2023-04-15T02:41:51.846Z,100.00
2023-04-15T02:44:20.578Z,100.00
2023-04-15T02:46:52.567Z,100.00
2023-04-15T02:49:23.047Z,100.00
2023-04-15T02:51:51.334Z,100.00
2023-04-15T02:54:22.917Z,100.00
2023-04-15T02:56:50.873Z,100.00
2023-04-15T02:59:18.129Z,100.00
2023-04-15T03:01:45.750Z,100.00
2023-04-15T03:04:14.465Z,100.00
2023-04-15T03:06:41.815Z,100.00
2023-04-15T03:09:10.394Z,100.00
2023-04-15T03:11:41.088Z,100.00
2023-04-15T03:14:10.094Z,100.00
2023-04-15T03:16:41.774Z,100.00
2023-04-15T03:19:09.127Z,100.00
2023-04-15T03:21:37.702Z,100.00
2023-04-15T03:24:05.189Z,100.00
2023-04-15T03:26:32.951Z,100.00
2023-04-15T03:29:03.148Z,100.00
2023-04-15T03:31:30.630Z,100.00
2023-04-15T03:33:57.938Z,100.00
2023-04-15T03:36:25.968Z,100.00
2023-04-15T03:38:53.157Z,100.00
2023-04-15T03:41:20.426Z,100.00
2023-04-15T03:43:47.755Z,100.00
2023-04-15T03:46:15.088Z,100.00
2023-04-15T03:48:42.321Z,100.00
2023-04-15T03:51:10.030Z,100.00
2023-04-15T03:53:37.634Z,100.00
2023-04-15T03:56:05.670Z,100.00
2023-04-15T03:58:32.895Z,100.00
2023-04-15T04:01:00.486Z,100.00
2023-04-15T04:03:28.004Z,100.00
2023-04-15T04:05:55.431Z,100.00
2023-04-15T04:08:22.851Z,100.00
2023-04-15T04:10:50.265Z,100.00
2023-04-15T04:13:17.530Z,100.00
2023-04-15T04:15:44.910Z,100.00
2023-04-15T04:18:12.581Z,100.00
2023-04-15T04:20:39.868Z,100.00
2023-04-15T04:23:07.145Z,100.00
2023-04-15T04:25:34.488Z,100.00
2023-04-15T04:28:01.768Z,100.00
2023-04-15T04:30:29.004Z,100.00
2023-04-15T04:32:56.375Z,100.00
2023-04-15T04:35:23.706Z,100.00
2023-04-15T04:37:51.003Z,100.00
2023-04-15T04:40:18.413Z,100.00
2023-04-15T04:42:46.113Z,100.00
2023-04-15T04:45:13.503Z,100.00
2023-04-15T04:47:40.811Z,100.00
2023-04-15T04:50:09.314Z,100.00
2023-04-15T04:52:36.954Z,100.00
2023-04-15T04:55:04.533Z,100.00
2023-04-15T04:57:31.984Z,100.00
2023-04-15T04:59:59.318Z,100.00
2023-04-15T05:02:27.720Z,100.00
2023-04-15T05:04:55.466Z,100.00
2023-04-15T05:07:22.929Z,100.00
2023-04-15T05:09:50.314Z,100.00
2023-04-15T05:12:18.352Z,100.00
2023-04-15T05:14:46.880Z,100.00
2023-04-15T05:17:14.393Z,100.00
2023-04-15T05:19:41.555Z,92.29
2023-04-15T05:22:08.906Z,89.09
2023-04-15T05:24:36.548Z,84.52
2023-04-15T05:27:03.838Z,86.92
2023-04-15T05:29:31.348Z,86.83
2023-04-15T05:31:58.691Z,82.83
2023-04-15T05:34:26.118Z,83.09
2023-04-15T05:36:53.241Z,79.42
2023-04-15T05:39:20.920Z,83.08
2023-04-15T05:41:48.184Z,86.85
2023-04-15T05:44:15.488Z,86.30
2023-04-15T05:46:43.473Z,86.12
2023-04-15T05:49:10.960Z,90.25
2023-04-15T05:51:38.167Z,88.12
2023-04-15T05:54:05.792Z,86.90
2023-04-15T05:56:33.179Z,82.26
2023-04-15T05:59:00.677Z,82.65
2023-04-15T06:01:28.235Z,81.04
2023-04-15T06:03:55.856Z,79.56
2023-04-15T06:06:23.647Z,80.80
2023-04-15T06:08:51.038Z,78.03
2023-04-15T06:11:18.344Z,73.16
2023-04-15T06:13:45.669Z,61.58
2023-04-15T06:16:12.908Z,58.39
2023-04-15T06:18:40.451Z,54.18
2023-04-15T06:21:08.099Z,50.52
2023-04-15T06:23:37.297Z,48.39
2023-04-15T06:26:04.659Z,49.81
2023-04-15T06:28:31.896Z,45.00
2023-04-15T06:30:59.219Z,41.25
2023-04-15T06:33:26.477Z,41.62
2023-04-15T06:35:54.091Z,38.54
2023-04-15T06:38:21.530Z,38.28
2023-04-15T06:40:48.924Z,37.22
2023-04-15T06:43:16.132Z,36.49
2023-04-15T06:45:43.316Z,35.71
2023-04-15T06:48:10.498Z,36.10
2023-04-15T06:50:37.878Z,39.80
2023-04-15T06:53:05.244Z,41.17
2023-04-15T06:55:33.992Z,41.61
2023-04-15T06:58:01.296Z,37.06
2023-04-15T07:00:28.829Z,35.08
2023-04-15T07:02:56.810Z,34.40
2023-04-15T07:05:25.451Z,34.90
2023-04-15T07:07:53.116Z,32.87
2023-04-15T07:10:20.573Z,31.82
2023-04-15T07:12:50.724Z,31.29
2023-04-15T07:15:18.065Z,34.62
2023-04-15T07:17:45.423Z,38.36
2023-04-15T07:20:13.322Z,41.63
2023-04-15T07:22:40.946Z,36.01
2023-04-15T07:25:09.174Z,37.36
2023-04-15T07:27:36.795Z,38.57
2023-04-15T07:30:04.543Z,38.36
2023-04-15T07:32:31.950Z,36.18
2023-04-15T07:34:59.340Z,40.85
2023-04-15T07:37:26.608Z,41.19
2023-04-15T07:39:53.740Z,40.60
2023-04-15T07:42:21.538Z,37.85
2023-04-15T07:44:48.869Z,40.69
2023-04-15T07:47:16.277Z,39.34
2023-04-15T07:49:44.426Z,41.09
2023-04-15T07:52:11.804Z,42.21
2023-04-15T07:54:39.953Z,39.54
2023-04-15T07:57:07.972Z,34.01
2023-04-15T07:59:35.426Z,35.39
2023-04-15T08:02:03.529Z,38.42
2023-04-15T08:04:31.390Z,38.02
2023-04-15T08:06:59.102Z,38.23
2023-04-15T08:09:27.298Z,41.09
2023-04-15T08:11:54.589Z,37.83
2023-04-15T08:14:22.302Z,35.46
2023-04-15T08:16:49.507Z,38.87
2023-04-15T08:19:17.240Z,39.65
2023-04-15T08:21:44.545Z,39.31
2023-04-15T08:24:12.419Z,35.91
2023-04-15T08:26:39.607Z,32.05
2023-04-15T08:29:06.871Z,31.59
2023-04-15T08:31:34.275Z,29.38
2023-04-15T08:34:01.596Z,34.10
2023-04-15T08:36:28.842Z,31.48
2023-04-15T08:38:56.264Z,26.93
2023-04-15T08:41:26.216Z,25.31
2023-04-15T08:44:01.427Z,24.04
2023-04-15T08:46:29.541Z,23.75
2023-04-15T08:48:58.596Z,24.73
2023-04-15T08:51:27.293Z,29.02
2023-04-15T08:53:55.288Z,29.21
2023-04-15T08:56:29.690Z,27.58
2023-04-15T08:58:57.949Z,30.40
2023-04-15T09:01:25.762Z,35.13
2023-04-15T09:03:57.245Z,36.44
2023-04-15T09:06:27.208Z,33.71
2023-04-15T09:08:54.806Z,31.63
2023-04-15T09:11:22.978Z,33.30
2023-04-15T09:13:50.657Z,36.88
2023-04-15T09:16:18.783Z,39.27
2023-04-15T09:18:46.336Z,39.85
2023-04-15T09:21:16.883Z,39.69
2023-04-15T09:24:02.085Z,32.07
2023-04-15T09:26:35.095Z,30.73
2023-04-15T09:29:10.992Z,28.06
2023-04-15T09:31:38.578Z,31.84
2023-04-15T09:34:07.052Z,35.67
2023-04-15T09:36:57.508Z,36.15
2023-04-15T09:39:24.884Z,36.70
2023-04-15T09:42:08.739Z,38.09
2023-04-15T09:44:36.517Z,38.53
2023-04-15T09:47:03.881Z,36.31
2023-04-15T09:49:31.210Z,29.92
2023-04-15T09:52:06.185Z,26.86
2023-04-15T09:54:37.806Z,27.84
2023-04-15T09:57:10.484Z,29.61
2023-04-15T09:59:38.056Z,31.83
2023-04-15T10:02:07.837Z,33.10
2023-04-15T10:04:39.422Z,35.58
2023-04-15T10:07:12.285Z,37.83
2023-04-15T10:09:40.553Z,39.44
2023-04-15T10:12:08.943Z,37.17
2023-04-15T10:14:38.812Z,36.10
2023-04-15T10:17:08.430Z,37.07
2023-04-15T10:19:38.224Z,39.43
2023-04-15T10:22:07.102Z,39.22
2023-04-15T10:24:34.618Z,39.05
2023-04-15T10:27:04.677Z,40.26
2023-04-15T10:29:32.292Z,40.68
2023-04-15T10:32:01.931Z,38.76
2023-04-15T10:34:30.706Z,41.61
2023-04-15T10:37:03.697Z,39.74
2023-04-15T10:39:36.468Z,39.19
2023-04-15T10:42:08.956Z,38.27
2023-04-15T10:44:42.562Z,38.32
2023-04-15T10:47:21.713Z,36.91
2023-04-15T10:49:58.601Z,36.76
2023-04-15T10:52:28.799Z,36.72
2023-04-15T10:55:11.500Z,38.42
2023-04-15T10:57:41.421Z,42.63
2023-04-15T11:00:14.283Z,39.55
2023-04-15T11:02:47.429Z,38.20
2023-04-15T11:05:17.453Z,41.93
2023-04-15T11:07:55.784Z,40.75
2023-04-15T11:10:26.308Z,38.98
2023-04-15T11:12:58.507Z,39.25
2023-04-15T11:15:47.205Z,42.70
2023-04-15T11:18:17.111Z,40.52
2023-04-15T11:20:48.999Z,40.30
2023-04-15T11:23:19.258Z,41.06
2023-04-15T11:25:46.868Z,40.42
2023-04-15T11:28:14.508Z,40.42
2023-04-15T11:30:43.902Z,41.40
2023-04-15T11:33:12.735Z,41.30
2023-04-15T11:35:42.391Z,44.03
2023-04-15T11:38:12.693Z,40.94
2023-04-15T11:40:42.133Z,38.87
2023-04-15T11:43:11.368Z,40.79
2023-04-15T11:45:58.839Z,38.95
2023-04-15T11:48:32.199Z,36.74
2023-04-15T11:51:05.442Z,38.61
2023-04-15T11:53:48.685Z,37.65
2023-04-15T11:56:25.609Z,41.61
2023-04-15T11:58:57.223Z,37.38
2023-04-15T12:01:39.916Z,41.91
2023-04-15T12:04:14.761Z,41.99
2023-04-15T12:06:42.188Z,42.38
2023-04-15T12:09:14.704Z,41.32
2023-04-15T12:11:55.804Z,40.39
2023-04-15T12:14:32.848Z,39.85
2023-04-15T12:17:05.628Z,39.02
2023-04-15T12:19:45.617Z,41.73
2023-04-15T12:22:17.071Z,41.39
2023-04-15T12:24:48.076Z,41.72
2023-04-15T12:27:17.111Z,39.24
2023-04-15T12:29:45.079Z,40.91
2023-04-15T12:32:14.067Z,41.31
2023-04-15T12:34:51.272Z,42.11
2023-04-15T12:37:18.865Z,42.29
2023-04-15T12:39:50.190Z,38.58
2023-04-15T12:42:18.629Z,41.29
2023-04-15T12:44:46.372Z,39.17
2023-04-15T12:47:14.108Z,40.37
2023-04-15T12:49:41.554Z,41.20
2023-04-15T12:52:08.942Z,41.65
2023-04-15T12:54:36.536Z,41.69
2023-04-15T12:57:06.810Z,42.28
2023-04-15T12:59:35.488Z,43.44
2023-04-15T13:02:03.312Z,42.84
2023-04-15T13:04:31.633Z,41.84
2023-04-15T13:06:59.058Z,43.50
2023-04-15T13:09:26.455Z,39.97
2023-04-15T13:11:54.731Z,41.69
2023-04-15T13:14:22.141Z,44.14
2023-04-15T13:16:49.306Z,42.64
2023-04-15T13:19:16.545Z,42.24
2023-04-15T13:21:43.954Z,43.12
2023-04-15T13:24:11.279Z,44.10
2023-04-15T13:26:38.581Z,46.52
2023-04-15T13:29:06.015Z,47.21
2023-04-15T13:31:33.382Z,46.19
2023-04-15T13:34:00.935Z,49.04
2023-04-15T13:36:28.367Z,47.14
2023-04-15T13:38:55.826Z,49.38
2023-04-15T13:41:23.093Z,49.19
2023-04-15T13:43:50.517Z,50.29
2023-04-15T13:46:17.862Z,50.71
2023-04-15T13:48:45.341Z,52.05
2023-04-15T13:51:12.648Z,50.85
2023-04-15T13:53:40.017Z,52.23
2023-04-15T13:56:08.719Z,54.16
2023-04-15T13:58:37.995Z,52.74
2023-04-15T14:01:06.989Z,54.31
2023-04-15T14:03:38.350Z,57.17
2023-04-15T14:06:06.740Z,60.80
2023-04-15T14:08:34.111Z,63.23
2023-04-15T14:11:01.693Z,62.64
2023-04-15T14:13:29.231Z,65.18
2023-04-15T14:15:57.647Z,62.46
2023-04-15T14:18:25.357Z,62.74
2023-04-15T14:20:52.742Z,60.60
2023-04-15T14:23:20.117Z,63.22
2023-04-15T14:25:48.355Z,64.98
2023-04-15T14:28:16.195Z,62.80
2023-04-15T14:30:43.764Z,61.31
2023-04-15T14:33:11.284Z,61.22
2023-04-15T14:35:39.231Z,59.17
2023-04-15T14:38:10.500Z,61.48
2023-04-15T14:40:38.004Z,59.11
2023-04-15T14:43:05.299Z,60.87
2023-04-15T14:45:32.606Z,59.66
2023-04-15T14:48:00.343Z,58.41
2023-04-15T14:50:27.715Z,57.67
2023-04-15T14:52:54.942Z,57.95
2023-04-15T14:55:22.425Z,56.49
2023-04-15T14:57:49.756Z,53.67
2023-04-15T15:00:17.217Z,54.25
2023-04-15T15:02:44.686Z,53.33
2023-04-15T15:05:12.524Z,51.71
2023-04-15T15:07:43.294Z,52.65
2023-04-15T15:10:10.790Z,55.01
2023-04-15T15:12:38.116Z,55.18
2023-04-15T15:15:15.741Z,55.88
2023-04-15T15:17:53.886Z,57.31
2023-04-15T15:20:21.805Z,56.06
2023-04-15T15:22:49.213Z,55.02
2023-04-15T15:25:16.563Z,55.39
2023-04-15T15:27:43.900Z,57.97
2023-04-15T15:30:12.014Z,56.65
2023-04-15T15:32:41.817Z,56.51
2023-04-15T15:35:10.512Z,58.99
2023-04-15T15:37:38.453Z,57.18
2023-04-15T15:40:06.866Z,60.31
2023-04-15T15:42:34.914Z,54.44
2023-04-15T15:45:04.811Z,52.61
2023-04-15T15:47:32.179Z,54.58
2023-04-15T15:50:02.342Z,55.65
2023-04-15T15:52:31.025Z,54.23
2023-04-15T15:54:58.345Z,54.43
2023-04-15T15:57:25.748Z,52.80
2023-04-15T16:00:04.726Z,53.18
2023-04-15T16:03:04.436Z,54.06
2023-04-15T16:05:25.415Z,52.40
2023-04-15T16:07:52.797Z,53.10
2023-04-15T16:10:20.074Z,52.29
2023-04-15T16:12:47.319Z,52.08
2023-04-15T16:15:14.861Z,52.61
2023-04-15T16:17:42.245Z,54.25
2023-04-15T16:20:10.413Z,55.04
2023-04-15T16:22:38.057Z,54.00
2023-04-15T16:25:05.917Z,56.34
2023-04-15T16:27:36.431Z,57.35
2023-04-15T16:30:07.274Z,57.41
2023-04-15T16:32:34.731Z,58.91
2023-04-15T16:35:03.418Z,60.61
2023-04-15T16:37:32.974Z,59.59
2023-04-15T16:40:01.059Z,60.56
2023-04-15T16:42:28.969Z,61.19
2023-04-15T16:44:56.454Z,60.16
2023-04-15T16:47:23.784Z,62.46
2023-04-15T16:49:51.328Z,66.39
2023-04-15T16:52:18.762Z,69.91
2023-04-15T16:54:46.120Z,71.33
2023-04-15T16:57:13.419Z,71.94
2023-04-15T16:59:40.804Z,72.15
2023-04-15T17:02:13.473Z,72.08
2023-04-15T17:04:41.874Z,72.59
2023-04-15T17:07:10.666Z,73.80
2023-04-15T17:09:39.750Z,74.38
2023-04-15T17:12:07.510Z,76.68
2023-04-15T17:14:35.339Z,77.27
2023-04-15T17:17:02.695Z,78.19
2023-04-15T17:19:29.842Z,79.46
2023-04-15T17:21:58.236Z,77.31
2023-04-15T17:24:25.621Z,78.19
2023-04-15T17:26:54.336Z,80.48
2023-04-15T17:29:21.545Z,80.82
2023-04-15T17:31:48.811Z,79.29
2023-04-15T17:34:16.243Z,77.58
2023-04-15T17:36:43.703Z,77.98
2023-04-15T17:39:11.704Z,77.95
2023-04-15T17:41:38.971Z,78.84
2023-04-15T17:44:06.591Z,79.56
2023-04-15T17:46:34.206Z,80.51
2023-04-15T17:49:02.633Z,80.93
2023-04-15T17:51:30.004Z,80.41
2023-04-15T17:54:07.536Z,80.43
2023-04-15T17:56:35.403Z,81.49
2023-04-15T17:59:03.613Z,78.45
2023-04-15T18:01:30.907Z,82.80
2023-04-15T18:03:58.421Z,82.97
2023-04-15T18:06:27.296Z,83.49
2023-04-15T18:08:54.616Z,84.90
2023-04-15T18:11:22.038Z,89.48
2023-04-15T18:13:49.477Z,87.53
2023-04-15T18:16:16.692Z,86.15
2023-04-15T18:18:44.091Z,85.83
2023-04-15T18:21:13.530Z,86.14
2023-04-15T18:23:41.269Z,92.45
2023-04-15T18:26:08.581Z,94.67
2023-04-15T18:28:37.657Z,93.46
2023-04-15T18:31:05.622Z,100.00
2023-04-15T18:33:33.049Z,99.38
2023-04-15T18:36:02.544Z,97.56
2023-04-15T18:38:29.901Z,88.66
2023-04-15T18:40:57.141Z,87.24
2023-04-15T18:43:24.336Z,89.15
2023-04-15T18:45:53.121Z,87.61
2023-04-15T18:48:20.882Z,86.29
2023-04-15T18:50:49.072Z,89.72
2023-04-15T18:53:16.516Z,91.45
2023-04-15T18:55:43.759Z,95.18
2023-04-15T18:58:11.116Z,93.20
2023-04-15T19:00:41.848Z,95.86
2023-04-15T19:03:10.092Z,100.00
2023-04-15T19:05:37.675Z,93.70
2023-04-15T19:08:05.143Z,98.21
2023-04-15T19:10:34.040Z,98.30
2023-04-15T19:13:01.342Z,98.42
2023-04-15T19:15:29.411Z,99.83
2023-04-15T19:17:56.886Z,100.00
2023-04-15T19:20:24.224Z,100.00
2023-04-15T19:22:51.819Z,94.80
2023-04-15T19:25:19.262Z,93.89
2023-04-15T19:27:46.759Z,95.09
2023-04-15T19:30:14.198Z,94.12
2023-04-15T19:32:41.421Z,94.28
2023-04-15T19:35:11.371Z,95.58
2023-04-15T19:37:39.055Z,96.77
2023-04-15T19:40:07.383Z,98.32
2023-04-15T19:42:34.999Z,97.40
2023-04-15T19:45:02.316Z,99.93
2023-04-15T19:47:29.519Z,98.84
2023-04-15T19:49:56.780Z,97.03
2023-04-15T19:52:24.037Z,97.20
2023-04-15T19:54:51.344Z,97.37
2023-04-15T19:57:18.571Z,97.89
2023-04-15T19:59:45.953Z,96.54
2023-04-15T20:02:13.403Z,94.59
2023-04-15T20:04:40.868Z,95.47
2023-04-15T20:07:08.380Z,98.03
2023-04-15T20:09:35.640Z,98.65
2023-04-15T20:12:45.570Z,99.50
2023-04-15T20:14:50.275Z,98.15
2023-04-15T20:17:17.461Z,99.03
2023-04-15T20:19:44.693Z,99.71
2023-04-15T20:22:11.940Z,99.06
2023-04-15T20:24:39.336Z,99.73
2023-04-15T20:27:06.549Z,99.81
2023-04-15T20:29:33.952Z,98.88
2023-04-15T20:32:01.268Z,99.69
2023-04-15T20:34:28.516Z,100.00
2023-04-15T20:36:55.872Z,100.00
2023-04-15T20:39:23.347Z,100.00
2023-04-15T20:41:50.791Z,99.28
2023-04-15T20:44:17.995Z,97.30
2023-04-15T20:46:45.263Z,98.84
2023-04-15T20:49:12.557Z,99.87
2023-04-15T20:51:40.471Z,99.47
2023-04-15T20:54:08.021Z,99.90
2023-04-15T20:56:35.477Z,100.00
2023-04-15T20:59:03.019Z,100.00
2023-04-15T21:01:30.623Z,100.00
2023-04-15T21:03:58.968Z,100.00
2023-04-15T21:06:27.147Z,100.00
2023-04-15T21:08:54.423Z,100.00
2023-04-15T21:11:40.626Z,100.00
2023-04-15T21:14:09.249Z,100.00
2023-04-15T21:16:36.531Z,100.00
2023-04-15T21:19:03.975Z,100.00
2023-04-15T21:21:32.030Z,100.00
2023-04-15T21:23:59.870Z,100.00
2023-04-15T21:26:27.065Z,100.00
2023-04-15T21:28:54.362Z,100.00
2023-04-15T21:31:22.169Z,100.00
2023-04-15T21:33:49.625Z,100.00
2023-04-15T21:36:16.878Z,100.00
2023-04-15T21:38:44.255Z,100.00
2023-04-15T21:41:11.418Z,100.00
2023-04-15T21:43:38.994Z,100.00
2023-04-15T21:46:22.563Z,100.00
2023-04-15T21:48:53.663Z,100.00
2023-04-15T21:51:21.064Z,100.00
2023-04-15T21:53:48.531Z,100.00
2023-04-15T21:56:15.825Z,100.00
2023-04-15T21:58:43.139Z,100.00
2023-04-15T22:01:10.527Z,100.00
2023-04-15T22:03:37.902Z,100.00
2023-04-15T22:06:05.574Z,100.00
2023-04-15T22:08:38.699Z,100.00
2023-04-15T22:11:28.451Z,100.00
2023-04-15T22:13:57.429Z,100.00
2023-04-15T22:16:28.720Z,100.00
2023-04-15T22:18:56.491Z,100.00
2023-04-15T22:21:24.086Z,100.00
2023-04-15T22:23:52.311Z,100.00
2023-04-15T22:26:19.588Z,100.00
2023-04-15T22:28:46.925Z,100.00
2023-04-15T22:31:15.038Z,100.00
2023-04-15T22:33:42.480Z,100.00
2023-04-15T22:36:09.910Z,100.00
2023-04-15T22:38:37.361Z,100.00
2023-04-15T22:41:04.912Z,100.00
2023-04-15T22:43:32.292Z,100.00
2023-04-15T22:46:01.326Z,100.00
2023-04-15T22:48:28.630Z,100.00
2023-04-15T22:50:56.021Z,100.00
2023-04-15T22:53:23.360Z,100.00
2023-04-15T22:55:51.186Z,100.00
2023-04-15T22:58:18.579Z,100.00
2023-04-15T23:00:45.938Z,100.00
2023-04-15T23:03:13.336Z,100.00
2023-04-15T23:05:41.298Z,100.00
2023-04-15T23:08:08.708Z,100.00
2023-04-15T23:10:35.888Z,100.00
2023-04-15T23:13:03.147Z,100.00
2023-04-15T23:15:30.401Z,100.00
2023-04-15T23:17:57.792Z,100.00
2023-04-15T23:20:25.062Z,100.00
2023-04-15T23:22:52.292Z,100.00
2023-04-15T23:25:22.288Z,100.00
2023-04-15T23:27:49.474Z,100.00
2023-04-15T23:30:16.948Z,100.00
2023-04-15T23:32:44.207Z,100.00
2023-04-15T23:35:11.689Z,100.00
2023-04-15T23:37:38.972Z,100.00
2023-04-15T23:40:07.339Z,100.00
2023-04-15T23:42:34.590Z,100.00
2023-04-15T23:45:01.994Z,100.00
2023-04-15T23:47:29.191Z,100.00
2023-04-15T23:49:56.535Z,100.00
2023-04-15T23:52:24.072Z,100.00
2023-04-15T23:54:51.581Z,100.00
2023-04-15T23:57:18.925Z,100.00
2023-04-15T23:59:46.715Z,100.00
